createdAt,value
2019-06-01T00:00:37.949Z,34.60
2019-06-01T00:03:07.812Z,36.17
2019-06-01T00:05:38.357Z,33.17
2019-06-01T00:08:07.448Z,33.20
2019-06-01T00:10:36.928Z,33.20
2019-06-01T00:13:07.024Z,35.00
2019-06-01T00:15:36.888Z,35.23
2019-06-01T00:18:06.709Z,42.13
2019-06-01T00:20:36.410Z,43.80
2019-06-01T00:23:06.320Z,39.00
2019-06-01T00:25:35.988Z,36.23
2019-06-01T00:28:05.661Z,39.20
2019-06-01T00:30:36.105Z,36.10
2019-06-01T00:33:06.322Z,41.10
2019-06-01T00:35:36.596Z,44.60
2019-06-01T00:38:06.106Z,45.77
2019-06-01T00:40:36.438Z,44.77
2019-06-01T00:43:06.556Z,44.83
2019-06-01T00:45:36.598Z,50.63
2019-06-01T00:48:06.171Z,50.37
2019-06-01T00:50:35.787Z,45.77
2019-06-01T00:53:05.215Z,41.00
2019-06-01T00:55:34.712Z,47.40
2019-06-01T00:58:04.264Z,48.10
2019-06-01T01:00:43.150Z,44.00
2019-06-01T01:03:03.941Z,39.50
2019-06-01T01:05:34.033Z,39.20
2019-06-01T01:08:03.778Z,48.23
2019-06-01T01:10:33.496Z,46.40
2019-06-01T01:13:03.609Z,39.63
2019-06-01T01:15:33.100Z,48.30
2019-06-01T01:18:03.094Z,41.37
2019-06-01T01:20:33.058Z,40.20
2019-06-01T01:23:04.227Z,39.77
2019-06-01T01:25:34.023Z,45.83
2019-06-01T01:28:03.471Z,42.40
2019-06-01T01:30:34.173Z,41.87
2019-06-01T01:33:03.690Z,38.10
2019-06-01T01:35:33.100Z,42.23
2019-06-01T01:38:03.128Z,39.50
2019-06-01T01:40:32.977Z,43.73
2019-06-01T01:43:02.561Z,32.00
2019-06-01T01:45:32.614Z,37.50
2019-06-01T01:48:03.488Z,42.40
2019-06-01T01:50:33.250Z,41.87
2019-06-01T01:53:03.312Z,40.63
2019-06-01T01:55:33.722Z,37.50
2019-06-01T01:58:03.219Z,37.47
2019-06-01T02:00:32.946Z,38.00
2019-06-01T02:03:03.007Z,39.00
2019-06-01T02:05:33.089Z,39.50
2019-06-01T02:08:03.140Z,39.57
2019-06-01T02:10:32.893Z,35.98
2019-06-01T02:13:02.710Z,38.20
2019-06-01T02:15:32.415Z,38.23
2019-06-01T02:18:02.763Z,34.23
2019-06-01T02:20:33.527Z,33.17
2019-06-01T02:23:04.149Z,41.17
2019-06-01T02:25:34.376Z,37.50
2019-06-01T02:28:03.817Z,38.53
2019-06-01T02:30:33.548Z,38.37
2019-06-01T02:33:04.654Z,40.70
2019-06-01T02:35:33.369Z,35.45
2019-06-01T02:38:05.177Z,40.00
2019-06-01T02:40:33.762Z,34.23
2019-06-01T02:43:04.303Z,38.57
2019-06-01T02:45:34.017Z,35.10
2019-06-01T02:48:03.931Z,38.60
2019-06-01T02:50:34.498Z,36.63
2019-06-01T02:53:05.959Z,31.70
2019-06-01T02:55:35.070Z,31.52
2019-06-01T02:58:06.312Z,29.00
2019-06-01T03:00:35.171Z,32.58
2019-06-01T03:03:04.881Z,36.17
2019-06-01T03:05:34.348Z,32.90
2019-06-01T03:08:04.109Z,33.20
2019-06-01T03:10:33.574Z,33.60
2019-06-01T03:13:04.134Z,33.85
2019-06-01T03:15:33.836Z,38.02
2019-06-01T03:18:03.784Z,33.53
2019-06-01T03:20:33.225Z,33.48
2019-06-01T03:23:03.762Z,34.05
2019-06-01T03:25:34.013Z,32.50
2019-06-01T03:28:04.190Z,31.60
2019-06-01T03:30:34.241Z,27.98
2019-06-01T03:33:05.565Z,30.37
2019-06-01T03:35:34.659Z,27.45
2019-06-01T03:38:04.952Z,37.20
2019-06-01T03:40:35.240Z,26.10
2019-06-01T03:43:06.117Z,29.30
2019-06-01T03:45:36.226Z,29.77
2019-06-01T03:48:07.308Z,26.35
2019-06-01T03:50:37.067Z,23.12
2019-06-01T03:53:07.830Z,23.22
2019-06-01T03:55:37.108Z,31.45
2019-06-01T03:58:07.276Z,21.97
2019-06-01T04:00:37.149Z,27.02
2019-06-01T04:03:07.173Z,25.95
2019-06-01T04:05:37.538Z,26.23
2019-06-01T04:08:07.551Z,28.45
2019-06-01T04:10:37.372Z,24.45
2019-06-01T04:13:07.766Z,26.05
2019-06-01T04:15:37.760Z,23.12
2019-06-01T04:18:08.143Z,23.80
2019-06-01T04:20:38.849Z,25.50
2019-06-01T04:23:08.493Z,26.33
2019-06-01T04:25:38.090Z,22.62
2019-06-01T04:28:08.199Z,25.75
2019-06-01T04:30:38.016Z,25.97
2019-06-01T04:33:08.984Z,24.90
2019-06-01T04:35:38.300Z,23.57
2019-06-01T04:38:09.359Z,18.70
2019-06-01T04:40:39.307Z,20.80
2019-06-01T04:43:09.845Z,24.15
2019-06-01T04:45:39.128Z,21.70
2019-06-01T04:48:10.569Z,19.23
2019-06-01T04:50:40.580Z,21.45
2019-06-01T04:53:11.877Z,20.75
2019-06-01T04:55:40.799Z,18.62
2019-06-01T04:58:11.067Z,21.07
2019-06-01T05:00:41.217Z,19.70
2019-06-01T05:03:11.896Z,20.05
2019-06-01T05:05:41.052Z,20.08
2019-06-01T05:16:18.559Z,16.05
2019-06-01T05:18:48.889Z,15.80
2019-06-01T05:21:18.568Z,17.30
2019-06-01T05:23:48.087Z,19.45
2019-06-01T05:26:18.177Z,18.67
2019-06-01T05:28:47.521Z,16.12
2019-06-01T05:31:24.697Z,17.87
2019-06-01T05:33:48.095Z,19.07
2019-06-01T05:36:18.323Z,18.92
2019-06-01T05:38:47.926Z,18.15
2019-06-01T05:41:19.942Z,16.37
2019-06-01T05:43:48.733Z,16.42
2019-06-01T05:46:18.331Z,20.08
2019-06-01T05:48:48.761Z,22.75
2019-06-01T05:51:20.083Z,21.37
2019-06-01T05:53:49.681Z,18.15
2019-06-01T05:56:19.371Z,16.60
2019-06-01T05:58:49.706Z,19.77
2019-06-01T06:01:19.580Z,20.62
2019-06-01T06:03:50.671Z,20.10
2019-06-01T06:06:20.083Z,18.00
2019-06-01T06:08:50.790Z,17.12
2019-06-01T06:11:21.200Z,17.90
2019-06-01T06:13:51.033Z,16.90
2019-06-01T06:16:20.877Z,20.12
2019-06-01T06:18:52.314Z,20.70
2019-06-01T06:21:22.980Z,16.23
2019-06-01T06:23:53.785Z,18.85
2019-06-01T06:26:27.448Z,20.05
2019-06-01T06:28:56.792Z,21.97
2019-06-01T06:31:27.557Z,22.22
2019-06-01T06:33:58.675Z,20.23
2019-06-01T06:36:29.796Z,20.52
2019-06-01T06:39:05.253Z,25.82
2019-06-01T06:41:36.376Z,20.92
2019-06-01T06:44:07.712Z,21.23
2019-06-01T06:46:37.506Z,19.65
2019-06-01T06:49:09.973Z,18.55
2019-06-01T06:51:39.843Z,19.27
2019-06-01T06:54:09.872Z,15.90
2019-06-01T06:56:40.646Z,17.23
2019-06-01T06:59:11.813Z,19.02
2019-06-01T07:01:42.957Z,17.92
2019-06-01T07:04:13.291Z,16.82
2019-06-01T07:06:43.673Z,18.12
2019-06-01T07:09:13.665Z,18.98
2019-06-01T07:11:44.439Z,19.45
2019-06-01T07:14:15.740Z,18.62
2019-06-01T07:16:45.896Z,16.40
2019-06-01T07:19:15.624Z,18.67
2019-06-01T07:21:46.619Z,18.75
2019-06-01T07:24:17.370Z,19.25
2019-06-01T07:26:48.913Z,19.42
2019-06-01T07:29:18.139Z,19.75
2019-06-01T07:31:50.015Z,19.25
2019-06-01T07:34:31.002Z,17.90
2019-06-01T07:36:50.549Z,18.20
2019-06-01T07:39:20.684Z,17.50
2019-06-01T07:41:50.253Z,19.12
2019-06-01T07:44:22.701Z,18.12
2019-06-01T07:46:53.567Z,17.60
2019-06-01T07:49:23.319Z,21.37
2019-06-01T07:51:53.256Z,18.65
2019-06-01T07:54:24.739Z,18.62
2019-06-01T07:56:54.561Z,19.37
2019-06-01T07:59:24.509Z,19.52
2019-06-01T08:01:54.324Z,21.48
2019-06-01T08:04:26.669Z,19.85
2019-06-01T08:06:56.087Z,21.50
2019-06-01T08:09:29.492Z,21.95
2019-06-01T08:11:59.698Z,20.02
2019-06-01T08:14:30.744Z,22.35
2019-06-01T08:17:00.677Z,20.82
2019-06-01T08:19:30.470Z,24.67
2019-06-01T08:22:00.399Z,23.85
2019-06-01T08:24:30.697Z,24.95
2019-06-01T08:27:00.973Z,22.62
2019-06-01T08:29:30.732Z,22.58
2019-06-01T08:32:00.631Z,23.25
2019-06-01T08:34:31.102Z,21.02
2019-06-01T08:37:00.291Z,22.77
2019-06-01T08:39:29.980Z,26.35
2019-06-01T08:41:59.933Z,26.75
2019-06-01T08:44:29.691Z,29.02
2019-06-01T08:46:59.201Z,26.27
2019-06-01T08:54:53.377Z,28.57
2019-06-01T08:57:24.185Z,25.85
2019-06-01T08:59:53.539Z,27.67
2019-06-01T09:02:22.973Z,27.65
2019-06-01T09:04:52.623Z,25.85
2019-06-01T09:07:22.309Z,27.55
2019-06-01T09:09:51.637Z,31.77
2019-06-01T09:12:21.089Z,26.60
2019-06-01T09:14:50.887Z,24.72
2019-06-01T09:17:20.260Z,27.50
2019-06-01T09:19:50.333Z,28.65
2019-06-01T09:22:20.293Z,24.55
2019-06-01T09:24:53.322Z,25.72
2019-06-01T09:27:19.862Z,27.52
2019-06-01T09:29:49.510Z,30.68
2019-06-01T09:32:19.461Z,28.42
2019-06-01T09:34:49.118Z,28.12
2019-06-01T09:37:18.537Z,25.62
2019-06-01T09:39:48.093Z,28.32
2019-06-01T09:42:17.377Z,27.02
2019-06-01T09:44:47.382Z,29.45
2019-06-01T09:47:17.067Z,27.10
2019-06-01T09:49:47.819Z,26.87
2019-06-01T09:52:17.137Z,23.85
2019-06-01T11:37:04.942Z,28.52
2019-06-01T11:39:28.780Z,30.75
2019-06-01T11:41:59.100Z,30.60
2019-06-01T11:44:28.986Z,33.75
2019-06-01T11:46:58.863Z,30.37
2019-06-01T11:49:28.412Z,33.73
2019-06-01T11:51:58.601Z,40.17
2019-06-01T11:54:28.810Z,39.85
2019-06-01T11:56:58.980Z,30.88
2019-06-01T11:59:28.902Z,33.00
2019-06-01T12:01:59.343Z,28.73
2019-06-01T12:04:28.911Z,28.30
2019-06-01T12:07:16.273Z,32.28
2019-06-01T12:09:29.591Z,35.85
2019-06-01T12:11:59.334Z,32.53
2019-06-01T12:14:28.825Z,31.27
2019-06-01T12:16:59.007Z,30.88
2019-06-01T12:19:28.944Z,39.20
2019-06-01T12:21:59.590Z,43.50
2019-06-01T12:24:29.275Z,50.67
2019-06-01T12:26:58.889Z,55.43
2019-06-01T12:29:28.500Z,40.40
2019-06-01T12:31:57.778Z,51.02
2019-06-01T12:34:27.298Z,45.65
2019-06-01T12:36:58.254Z,37.67
2019-06-01T12:39:27.933Z,37.48
2019-06-01T12:41:57.401Z,34.43
2019-06-01T12:44:26.712Z,36.85
2019-06-01T12:46:56.012Z,36.88
2019-06-01T12:49:25.510Z,41.15
2019-06-01T12:51:54.805Z,43.27
2019-06-01T12:54:24.254Z,42.25
2019-06-01T12:56:54.040Z,41.40
2019-06-01T12:59:23.582Z,42.97
2019-06-01T13:01:52.820Z,45.03
2019-06-01T13:04:22.356Z,43.98
2019-06-01T13:06:52.999Z,38.40
2019-06-01T13:09:21.670Z,36.73
2019-06-01T13:11:51.460Z,38.13
2019-06-01T13:14:20.841Z,45.93
2019-06-01T13:17:03.218Z,41.90
2019-06-01T13:19:20.231Z,35.93
2019-06-01T13:21:50.214Z,43.10
2019-06-01T13:24:20.108Z,39.87
2019-06-01T13:26:50.112Z,43.73
2019-06-01T13:29:20.831Z,38.55
2019-06-01T13:31:50.580Z,41.83
2019-06-01T13:34:19.853Z,43.97
2019-06-01T13:36:50.783Z,35.80
2019-06-01T13:39:19.378Z,37.25
2019-06-01T13:41:49.513Z,43.90
2019-06-01T13:44:19.016Z,40.10
2019-06-01T13:46:49.430Z,44.77
2019-06-01T13:49:18.444Z,40.70
2019-06-01T13:51:48.008Z,45.00
2019-06-01T13:54:17.238Z,41.17
2019-06-01T13:56:46.886Z,45.37
2019-06-01T13:59:16.234Z,41.88
2019-06-01T14:01:46.930Z,42.88
2019-06-01T14:04:16.877Z,44.27
2019-06-01T14:06:47.068Z,45.27
2019-06-01T14:09:16.319Z,44.63
2019-06-01T14:11:47.241Z,43.13
2019-06-01T14:14:15.927Z,42.17
2019-06-01T14:16:45.641Z,45.47
2019-06-01T14:19:14.924Z,39.87
2019-06-01T14:21:45.614Z,42.50
2019-06-01T14:24:14.153Z,45.77
2019-06-01T14:26:43.226Z,42.57
2019-06-01T14:29:12.340Z,50.50
2019-06-01T14:31:42.050Z,43.87
2019-06-01T14:34:12.213Z,43.13
2019-06-01T14:36:42.495Z,48.03
2019-06-01T14:39:12.121Z,51.40
2019-06-01T14:41:41.639Z,50.50
2019-06-01T14:44:11.138Z,52.93
2019-06-01T14:46:53.534Z,51.10
2019-06-01T14:49:10.662Z,50.37
2019-06-01T14:51:40.247Z,45.33
2019-06-01T14:54:09.577Z,45.03
2019-06-01T14:56:39.294Z,49.60
2019-06-01T14:59:08.845Z,51.67
2019-06-01T15:01:38.341Z,51.23
2019-06-01T15:04:08.322Z,44.30
2019-06-01T15:06:37.732Z,50.73
2019-06-01T15:09:17.738Z,47.10
2019-06-01T15:11:37.163Z,49.93
2019-06-01T15:14:06.902Z,49.67
2019-06-01T15:16:36.203Z,43.87
2019-06-01T15:19:05.756Z,43.87
2019-06-01T15:21:34.906Z,42.27
2019-06-01T15:24:04.794Z,40.53
2019-06-01T15:26:34.103Z,45.37
2019-06-01T15:29:03.396Z,50.43
2019-06-01T15:31:32.968Z,50.10
2019-06-01T15:34:02.447Z,44.23
2019-06-01T15:36:31.748Z,42.80
2019-06-01T15:39:02.239Z,43.60
2019-06-01T15:41:31.538Z,44.57
2019-06-01T15:44:01.267Z,43.80
2019-06-01T15:46:31.771Z,49.50
2019-06-01T15:49:01.896Z,46.70
2019-06-01T15:51:31.631Z,53.60
2019-06-01T15:54:01.114Z,45.03
2019-06-01T15:56:30.611Z,43.53
2019-06-01T15:59:01.248Z,46.87
2019-06-01T16:01:29.817Z,50.53
2019-06-01T16:03:59.545Z,41.10
2019-06-01T16:06:29.062Z,47.03
2019-06-01T16:08:59.357Z,44.93
2019-06-01T16:11:28.661Z,44.63
2019-06-01T16:13:57.820Z,44.63
2019-06-01T16:16:27.263Z,46.20
2019-06-01T16:18:59.841Z,52.20
2019-06-01T16:21:26.049Z,53.67
2019-06-01T16:23:56.302Z,47.87
2019-06-01T16:26:25.480Z,49.13
2019-06-01T16:28:56.229Z,50.47
2019-06-01T16:31:25.124Z,45.10
2019-06-01T16:33:54.633Z,51.27
2019-06-01T16:36:24.103Z,51.70
2019-06-01T16:38:59.804Z,48.27
2019-06-01T16:41:24.542Z,46.93
2019-06-01T16:43:53.872Z,44.43
2019-06-01T16:46:22.958Z,47.33
2019-06-01T16:48:52.103Z,46.87
2019-06-01T16:51:21.572Z,45.33
2019-06-01T16:53:51.624Z,49.60
2019-06-01T16:56:21.472Z,45.83
2019-06-01T16:58:51.875Z,41.77
2019-06-01T17:01:21.221Z,44.50
2019-06-01T17:03:50.755Z,43.60
2019-06-01T17:06:20.938Z,45.93
2019-06-01T17:08:50.600Z,47.87
2019-06-01T17:11:20.671Z,46.57
2019-06-01T17:13:50.753Z,42.67
2019-06-01T17:16:20.515Z,41.83
2019-06-01T17:18:50.121Z,41.33
2019-06-01T17:21:20.037Z,40.83
2019-06-01T17:23:50.165Z,40.60
2019-06-01T17:26:19.765Z,36.37
2019-06-01T17:28:49.962Z,43.03
2019-06-01T17:31:20.244Z,42.20
2019-06-01T17:33:50.018Z,38.17
2019-06-01T17:36:19.548Z,37.83
2019-06-01T17:38:48.863Z,41.07
2019-06-01T17:41:18.385Z,44.00
2019-06-01T17:43:48.099Z,40.63
2019-06-01T17:46:17.528Z,38.07
2019-06-01T17:48:47.399Z,34.47
2019-06-01T17:51:16.620Z,38.93
2019-06-01T17:53:45.903Z,41.67
2019-06-01T17:56:15.445Z,40.37
2019-06-01T17:58:44.694Z,41.10
2019-06-01T18:01:14.134Z,36.73
2019-06-01T18:03:43.702Z,45.47
2019-06-01T18:06:13.413Z,38.70
2019-06-01T18:08:43.052Z,43.93
2019-06-01T18:11:13.152Z,36.43
2019-06-01T18:13:42.368Z,38.30
2019-06-01T18:16:13.070Z,39.90
2019-06-01T18:18:41.234Z,35.63
2019-06-01T18:21:10.447Z,37.27
2019-06-01T18:23:40.093Z,40.33
2019-06-01T18:26:09.190Z,37.30
2019-06-01T18:28:38.745Z,36.17
2019-06-01T18:31:08.735Z,42.93
2019-06-01T18:33:38.367Z,38.20
2019-06-01T18:36:08.161Z,37.37
2019-06-01T18:38:37.411Z,36.60
2019-06-01T18:41:14.580Z,33.73
2019-06-01T18:43:37.842Z,36.13
2019-06-01T18:46:08.071Z,37.20
2019-06-01T18:48:37.651Z,36.87
2019-06-01T18:51:08.099Z,37.70
2019-06-01T18:53:37.986Z,41.83
2019-06-01T18:56:08.166Z,42.20
2019-06-01T18:58:37.400Z,42.17
2019-06-01T19:01:08.312Z,34.63
2019-06-01T19:03:37.422Z,40.07
2019-06-01T19:06:07.282Z,38.27
2019-06-01T19:08:36.869Z,47.77
2019-06-01T19:11:06.196Z,35.33
2019-06-01T19:13:35.785Z,40.23
2019-06-01T19:16:05.820Z,38.53
2019-06-01T19:18:35.488Z,41.03
2019-06-01T19:21:06.315Z,37.83
2019-06-01T19:23:35.123Z,41.10
2019-06-01T19:26:04.752Z,38.33
2019-06-01T19:28:34.152Z,39.43
2019-06-01T19:31:03.403Z,39.73
2019-06-01T19:33:32.910Z,41.63
2019-06-01T19:36:02.364Z,40.87
2019-06-01T19:38:31.932Z,39.67
2019-06-01T19:41:01.774Z,39.23
2019-06-01T19:43:31.883Z,40.30
2019-06-01T19:46:01.450Z,43.27
2019-06-01T19:48:30.558Z,36.70
2019-06-01T19:51:00.080Z,37.37
2019-06-01T19:53:29.353Z,41.87
2019-06-01T19:55:58.863Z,43.17
2019-06-01T19:58:28.149Z,37.30
2019-06-01T20:00:58.418Z,38.80
2019-06-01T20:03:27.972Z,44.60
2019-06-01T20:05:57.072Z,43.87
2019-06-01T20:08:27.285Z,42.83
2019-06-01T20:10:56.699Z,43.13
2019-06-01T20:13:25.937Z,42.70
2019-06-01T20:15:55.402Z,43.13
2019-06-01T20:18:24.633Z,45.60
2019-06-01T20:20:53.932Z,40.67
2019-06-01T20:23:23.179Z,38.33
2019-06-01T20:25:52.322Z,40.60
2019-06-01T20:28:21.828Z,44.63
2019-06-01T20:30:51.529Z,43.60
2019-06-01T20:33:20.978Z,37.33
2019-06-01T20:35:50.772Z,39.83
2019-06-01T20:38:20.531Z,51.43
2019-06-01T20:40:49.820Z,44.50
2019-06-01T20:43:20.688Z,44.83
2019-06-01T20:45:49.932Z,46.20
2019-06-01T20:48:20.740Z,41.70
2019-06-01T20:50:49.092Z,46.03
2019-06-01T20:53:18.951Z,47.47
2019-06-01T20:55:48.525Z,44.40
2019-06-01T20:58:19.458Z,41.33
2019-06-01T21:00:48.162Z,43.87
2019-06-01T21:03:17.748Z,44.20
2019-06-01T21:05:47.128Z,47.67
2019-06-01T21:08:16.411Z,43.87
2019-06-01T21:10:45.962Z,44.83
2019-06-01T21:13:16.021Z,43.60
2019-06-01T21:15:45.164Z,45.90
2019-06-01T21:18:16.150Z,48.23
2019-06-01T21:20:44.603Z,43.97
2019-06-01T21:23:14.431Z,41.50
2019-06-01T21:25:43.873Z,46.97
2019-06-01T21:28:16.162Z,43.27
2019-06-01T21:30:43.503Z,40.40
2019-06-01T21:33:13.051Z,44.63
2019-06-01T21:35:42.493Z,46.60
2019-06-01T21:38:12.244Z,41.97
2019-06-01T21:40:41.956Z,43.90
2019-06-01T21:43:23.805Z,39.13
2019-06-01T21:45:42.112Z,41.70
2019-06-01T21:48:13.244Z,42.77
2019-06-01T21:50:43.241Z,44.97
2019-06-01T21:53:15.928Z,37.43
2019-06-01T21:55:46.836Z,42.27
2019-06-01T21:58:20.934Z,46.00
2019-06-01T22:00:49.452Z,42.87
2019-06-01T22:03:21.167Z,41.73
2019-06-01T22:05:52.680Z,43.07
2019-06-01T22:08:23.818Z,48.47
2019-06-01T22:10:57.004Z,49.80
2019-06-01T22:13:28.835Z,43.43
2019-06-01T22:15:59.232Z,49.83
2019-06-01T22:18:29.882Z,39.00
2019-06-01T22:21:02.012Z,48.50
2019-06-01T22:23:32.841Z,46.40
2019-06-01T22:26:03.636Z,46.43
2019-06-01T22:28:35.001Z,43.07
2019-06-01T22:31:08.165Z,41.23
2019-06-01T22:33:39.336Z,41.30
2019-06-01T22:36:09.532Z,45.20
2019-06-01T22:38:41.312Z,46.27
2019-06-01T22:41:12.037Z,39.57
2019-06-01T22:43:46.594Z,51.17
2019-06-01T22:46:17.803Z,46.30
2019-06-01T22:48:49.312Z,43.40
2019-06-01T22:51:20.786Z,44.17
2019-06-01T22:53:51.572Z,48.40
2019-06-01T22:56:23.202Z,44.60
2019-06-01T22:58:54.667Z,47.57
2019-06-01T23:01:26.802Z,51.10
2019-06-01T23:03:57.476Z,41.87
2019-06-01T23:06:29.185Z,48.87
2019-06-01T23:09:02.346Z,49.67
2019-06-01T23:11:32.071Z,48.63
2019-06-01T23:14:05.004Z,48.47
2019-06-01T23:16:35.832Z,49.73
2019-06-01T23:19:07.904Z,45.30
2019-06-01T23:21:37.261Z,48.90
2019-06-01T23:24:06.773Z,53.93
2019-06-01T23:26:38.914Z,47.73
2019-06-01T23:29:08.857Z,50.97
2019-06-01T23:31:39.621Z,48.07
2019-06-01T23:34:09.384Z,48.53
2019-06-01T23:36:41.806Z,44.50
2019-06-01T23:39:12.535Z,46.93
2019-06-01T23:41:42.753Z,46.47
2019-06-01T23:44:13.042Z,52.67
2019-06-01T23:46:43.282Z,48.67
2019-06-01T23:49:13.275Z,50.97
2019-06-01T23:51:43.724Z,46.70
2019-06-01T23:54:16.030Z,49.07
2019-06-01T23:56:46.979Z,44.47
2019-06-01T23:59:17.367Z,45.93
